Time;durP1;ratioP1;P1;durP2;ratioP2;P2;SDS_P1;SDS_P2;PMS_P1;PMS_P2;Temp;Humidity;BMP_temperature;BMP_pressure;BME280_temperature;BME280_humidity;BME280_pressure;Samples;Min_cycle;Max_cycle;Signal;HPM_P1;HPM_P2
2022/11/13 00:00:44;;;;;;;10.73;10.13;;;;;;;8.64;100.00;94160.03;5089570;28;20277;-68
2022/11/13 00:03:10;;;;;;;11.20;10.60;;;;;;;8.64;100.00;94167.84;5090811;28;20200;-68
2022/11/13 00:05:35;;;;;;;10.87;10.17;;;;;;;8.62;100.00;94165.47;5088232;28;20239;-68
2022/11/13 00:08:00;;;;;;;11.83;11.20;;;;;;;8.68;100.00;94158.56;5088718;28;20199;-67
2022/11/13 00:10:26;;;;;;;11.70;10.80;;;;;;;8.62;100.00;94164.69;5089497;28;20280;-68
2022/11/13 00:12:52;;;;;;;10.90;10.20;;;;;;;8.61;100.00;94163.88;5090720;28;20188;-67
2022/11/13 00:15:18;;;;;;;11.40;10.63;;;;;;;8.65;100.00;94152.00;5099945;28;20216;-68
2022/11/13 00:17:43;;;;;;;11.93;11.07;;;;;;;8.57;100.00;94144.53;5107550;28;20196;-68
2022/11/13 00:20:09;;;;;;;12.57;11.57;;;;;;;8.57;100.00;94136.72;5109489;28;20299;-68
2022/11/13 00:22:34;;;;;;;11.27;10.47;;;;;;;8.56;100.00;94126.53;5109184;28;20199;-68
2022/11/13 00:25:00;;;;;;;11.17;10.37;;;;;;;8.72;100.00;94150.06;5108810;28;20247;-68
2022/11/13 00:27:25;;;;;;;10.93;10.33;;;;;;;8.67;100.00;94143.97;5110097;28;20183;-69
2022/11/13 00:29:50;;;;;;;11.60;10.83;;;;;;;8.63;100.00;94132.41;5109122;28;20232;-68
2022/11/13 00:32:16;;;;;;;10.57;9.87;;;;;;;8.77;100.00;94141.56;5109213;28;20222;-68
2022/11/13 00:34:41;;;;;;;10.73;9.97;;;;;;;8.80;100.00;94138.47;5106140;28;20228;-68
2022/11/13 00:37:06;;;;;;;12.07;11.23;;;;;;;8.77;100.00;94136.34;5108436;28;20196;-69
2022/11/13 00:39:32;;;;;;;11.60;10.80;;;;;;;8.80;100.00;94133.28;5105894;28;20235;-68
2022/11/13 00:41:57;;;;;;;11.70;10.90;;;;;;;8.84;100.00;94137.78;5109943;28;20184;-68
2022/11/13 00:44:22;;;;;;;11.60;10.73;;;;;;;8.74;100.00;94136.81;5107911;28;20188;-67
2022/11/13 00:46:48;;;;;;;10.60;9.90;;;;;;;8.85;100.00;94133.38;5109703;28;20180;-68
2022/11/13 00:49:13;;;;;;;11.53;10.90;;;;;;;8.78;100.00;94133.50;5107942;28;20199;-68
2022/11/13 00:51:38;;;;;;;11.13;10.40;;;;;;;8.83;100.00;94132.81;5109624;28;20204;-68
2022/11/13 00:54:04;;;;;;;12.07;11.20;;;;;;;8.90;100.00;94128.28;5105795;28;20203;-68
2022/11/13 00:56:29;;;;;;;12.40;11.40;;;;;;;8.95;99.14;94133.59;5108606;28;20227;-68
2022/11/13 00:58:55;;;;;;;12.77;11.73;;;;;;;8.94;98.22;94111.97;5109434;28;20205;-68
2022/11/13 01:01:20;;;;;;;11.73;10.93;;;;;;;8.98;98.82;94130.53;5108649;28;20223;-68
2022/11/13 01:03:45;;;;;;;12.43;11.53;;;;;;;8.93;98.96;94127.81;5109758;28;20192;-69
2022/11/13 01:06:19;;;;;;;12.17;11.20;;;;;;;8.86;99.37;94134.97;5108272;28;20315;-68
2022/11/13 01:08:45;;;;;;;12.63;11.73;;;;;;;8.92;99.01;94126.25;5106214;28;20192;-68
2022/11/13 01:11:12;;;;;;;12.60;11.70;;;;;;;8.87;99.81;94134.72;5108184;28;20246;-68
2022/11/13 01:13:43;;;;;;;12.37;11.47;;;;;;;8.80;100.00;94131.47;5107966;28;20196;-66
2022/11/13 01:16:10;;;;;;;13.17;12.13;;;;;;;8.85;99.98;94136.00;5108112;28;20223;-68
2022/11/13 01:18:36;;;;;;;12.87;11.90;;;;;;;8.72;99.39;94112.81;5108912;28;20196;-67
2022/11/13 01:21:07;;;;;;;13.33;12.33;;;;;;;8.88;99.81;94127.72;5107448;28;20235;-67
2022/11/13 01:23:33;;;;;;;12.23;11.23;;;;;;;8.88;99.74;94132.91;5105500;28;20809;-69
2022/11/13 01:26:27;;;;;;;12.30;11.40;;;;;;;8.94;99.57;94137.19;5106700;28;20216;-68
2022/11/13 01:28:53;;;;;;;12.77;11.97;;;;;;;8.83;100.00;94131.00;5108662;28;20172;-68
2022/11/13 01:31:21;;;;;;;14.53;13.30;;;;;;;8.85;100.00;94133.38;5109401;28;20224;-67
2022/11/13 01:33:48;;;;;;;14.27;13.20;;;;;;;8.84;100.00;94137.03;5108109;28;20180;-67
2022/11/13 01:36:19;;;;;;;13.90;12.80;;;;;;;8.88;100.00;94131.13;5105845;28;20300;-68
2022/11/13 01:38:45;;;;;;;14.43;12.93;;;;;;;8.83;100.00;94119.78;5106478;28;20195;-67
2022/11/13 01:41:24;;;;;;;13.93;12.73;;;;;;;8.91;99.60;94120.25;5107044;28;20310;-67
2022/11/13 01:43:51;;;;;;;13.53;12.43;;;;;;;8.90;100.00;94115.25;5107871;28;20208;-67
2022/11/13 01:46:31;;;;;;;14.47;13.27;;;;;;;8.84;100.00;94116.19;5107252;28;20232;-67
2022/11/13 01:49:00;;;;;;;13.73;12.53;;;;;;;8.87;99.99;94105.31;5106286;28;20209;-67
2022/11/13 01:51:32;;;;;;;14.83;13.57;;;;;;;8.97;98.86;94110.69;5108549;28;20227;-67
2022/11/13 01:54:00;;;;;;;14.97;13.53;;;;;;;8.92;99.61;94118.44;5106637;28;20198;-68
2022/11/13 01:56:25;;;;;;;14.60;13.20;;;;;;;8.91;99.49;94112.44;5106720;28;20222;-68
2022/11/13 01:58:59;;;;;;;15.03;13.63;;;;;;;8.87;100.00;94106.06;5107017;28;20192;-67
2022/11/13 02:01:25;;;;;;;12.80;11.80;;;;;;;8.85;99.92;94108.16;5107924;28;20238;-68
2022/11/13 02:03:50;;;;;;;14.87;13.53;;;;;;;8.88;99.61;94109.47;5107789;28;20184;-67
2022/11/13 02:06:16;;;;;;;12.83;11.83;;;;;;;9.00;98.79;94110.22;5107695;28;20222;-68
2022/11/13 02:08:42;;;;;;;13.63;12.60;;;;;;;8.94;98.72;94111.16;5107409;28;20183;-67
2022/11/13 02:11:08;;;;;;;13.30;12.07;;;;;;;8.89;99.11;94111.84;5106927;28;20227;-67
2022/11/13 02:13:34;;;;;;;14.23;12.87;;;;;;;8.89;98.98;94105.84;5108054;28;20184;-67
2022/11/13 02:15:59;;;;;;;13.33;12.33;;;;;;;8.93;98.78;94114.78;5108507;28;20243;-67
2022/11/13 02:18:29;;;;;;;14.30;13.20;;;;;;;8.84;99.32;94116.97;5105420;28;20196;-68
2022/11/13 02:21:24;;;;;;;14.47;13.23;;;;;;;8.92;98.25;94119.22;5107801;28;20224;-68
2022/11/13 02:24:00;;;;;;;14.00;12.73;;;;;;;8.86;99.15;94116.72;5106082;28;20188;-67
2022/11/13 02:26:29;;;;;;;15.57;14.03;;;;;;;8.90;99.49;94115.25;5107699;28;20238;-68
2022/11/13 02:28:54;;;;;;;15.60;14.10;;;;;;;8.99;98.74;94113.88;5107721;28;20184;-68
2022/11/13 02:31:20;;;;;;;15.23;13.93;;;;;;;8.91;98.78;94116.84;5106597;28;20288;-68
2022/11/13 02:33:45;;;;;;;14.37;13.23;;;;;;;8.91;99.10;94112.44;5107771;28;20195;-67
2022/11/13 02:36:11;;;;;;;16.50;14.87;;;;;;;8.78;100.00;94111.91;5107312;28;20231;-68
2022/11/13 02:38:39;;;;;;;16.57;14.97;;;;;;;8.84;99.50;94105.78;5104645;28;20200;-68
2022/11/13 02:41:05;;;;;;;18.40;15.10;;;;;;;8.88;100.00;94114.69;5107331;28;20224;-68
2022/11/13 02:43:30;;;;;;;14.93;13.63;;;;;;;8.96;99.12;94109.13;5104803;28;20191;-69
2022/11/13 02:45:56;;;;;;;15.93;14.43;;;;;;;8.89;99.01;94103.25;5105958;28;20769;-68
2022/11/13 02:48:21;;;;;;;15.70;14.30;;;;;;;8.87;99.81;94116.50;5109937;28;20184;-68
2022/11/13 02:50:46;;;;;;;16.33;14.77;;;;;;;8.74;100.00;94102.97;5110750;28;20239;-67
2022/11/13 02:53:12;;;;;;;16.27;14.93;;;;;;;8.79;99.87;94097.84;5110475;28;20247;-67
2022/11/13 02:55:37;;;;;;;16.03;14.63;;;;;;;8.95;99.34;94113.53;5109745;28;20236;-67
2022/11/13 02:58:03;;;;;;;16.03;14.50;;;;;;;8.95;99.13;94113.53;5111205;28;20191;-67
2022/11/13 03:00:28;;;;;;;17.57;15.70;;;;;;;8.87;99.82;94110.50;5111968;28;20231;-67
2022/11/13 03:02:54;;;;;;;15.67;14.27;;;;;;;8.92;99.81;94118.44;5112280;28;20272;-68
2022/11/13 03:05:21;;;;;;;16.20;14.77;;;;;;;8.94;98.72;94111.16;5110593;28;20238;-68
2022/11/13 03:07:46;;;;;;;15.50;14.00;;;;;;;8.99;98.58;94113.88;5109577;28;20195;-68
2022/11/13 03:10:11;;;;;;;17.00;15.20;;;;;;;8.98;98.55;94120.88;5109877;28;20224;-67
2022/11/13 03:12:37;;;;;;;16.57;14.93;;;;;;;8.92;99.18;94116.59;5111159;28;20973;-67
2022/11/13 03:15:04;;;;;;;17.60;15.83;;;;;;;8.95;98.48;94123.94;5109771;28;20228;-66
2022/11/13 03:17:31;;;;;;;17.07;15.53;;;;;;;8.92;98.25;94115.84;5110076;28;20252;-68
2022/11/13 03:19:56;;;;;;;19.10;16.10;;;;;;;8.93;97.82;94114.78;5110601;28;20246;-67
2022/11/13 03:22:22;;;;;;;17.83;15.97;;;;;;;9.00;97.12;94112.84;5111717;28;20188;-67
2022/11/13 03:24:47;;;;;;;17.10;15.47;;;;;;;9.03;96.23;94120.97;5109355;28;20257;-69
2022/11/13 03:27:12;;;;;;;16.57;14.87;;;;;;;8.92;96.56;94102.81;5108975;28;20184;-68
2022/11/13 03:29:38;;;;;;;17.53;15.73;;;;;;;9.07;95.39;94121.31;5106366;28;20266;-68
2022/11/13 03:32:03;;;;;;;17.50;15.80;;;;;;;8.99;95.85;94103.44;5110112;28;20230;-67
2022/11/13 03:34:29;;;;;;;17.30;15.00;;;;;;;9.07;95.21;94116.09;5108508;28;20259;-67
2022/11/13 03:36:54;;;;;;;17.13;15.63;;;;;;;9.07;95.78;94121.31;5110624;28;20224;-68
2022/11/13 03:39:19;;;;;;;18.43;16.63;;;;;;;9.11;95.34;94123.22;5107483;28;20224;-67
2022/11/13 03:41:45;;;;;;;14.20;12.97;;;;;;;9.08;95.67;94121.09;5111755;28;20280;-67
2022/11/13 03:44:10;;;;;;;19.57;16.50;;;;;;;9.13;95.91;94126.41;5107273;28;20177;-68
2022/11/13 03:46:35;;;;;;;15.60;14.13;;;;;;;9.02;96.54;94129.03;5090813;28;20189;-68
2022/11/13 03:49:01;;;;;;;16.60;14.90;;;;;;;9.17;96.71;94126.72;5090723;28;20192;-68
2022/11/13 03:51:26;;;;;;;16.37;14.70;;;;;;;9.01;97.04;94128.22;5100583;28;20227;-67
2022/11/13 03:53:52;;;;;;;18.00;16.40;;;;;;;9.15;96.88;94129.53;5100505;28;20197;-66
2022/11/13 03:56:18;;;;;;;17.57;15.53;;;;;;;8.99;97.83;94121.69;5099227;28;20232;-66
2022/11/13 03:58:43;;;;;;;15.80;14.43;;;;;;;8.94;98.44;94122.38;5101490;28;20227;-69
2022/11/13 04:01:09;;;;;;;16.07;14.67;;;;;;;8.95;98.54;94133.59;5090772;28;20295;-68
2022/11/13 04:03:34;;;;;;;16.47;14.97;;;;;;;8.95;98.88;94128.38;5090361;28;20196;-68
2022/11/13 04:05:59;;;;;;;16.93;15.23;;;;;;;8.94;98.60;94122.38;5103625;28;20224;-67
2022/11/13 04:08:25;;;;;;;17.27;15.63;;;;;;;8.92;98.51;94124.41;5110151;28;20180;-67
2022/11/13 04:10:50;;;;;;;17.33;15.57;;;;;;;8.96;98.77;94127.34;5110326;28;20314;-68
2022/11/13 04:13:16;;;;;;;18.30;16.50;;;;;;;8.73;98.93;94109.97;5108861;28;20188;-67
2022/11/13 04:15:41;;;;;;;15.70;14.13;;;;;;;8.90;99.02;94125.69;5108401;28;20228;-69
2022/11/13 04:18:06;;;;;;;17.70;15.87;;;;;;;8.84;99.89;94116.97;5110955;28;20184;-68
2022/11/13 04:20:32;;;;;;;18.27;16.40;;;;;;;8.86;99.85;94119.34;5108390;28;20224;-68
2022/11/13 04:22:57;;;;;;;17.80;15.93;;;;;;;8.83;99.43;94114.59;5110061;28;20204;-67
2022/11/13 04:25:24;;;;;;;20.33;16.23;;;;;;;8.85;98.84;94115.16;5108102;28;20284;-67
2022/11/13 04:27:50;;;;;;;18.63;16.17;;;;;;;8.84;99.47;94111.75;5108765;28;20248;-68
2022/11/13 04:30:15;;;;;;;16.57;14.97;;;;;;;8.75;99.53;94096.72;5106958;28;21098;-69
2022/11/13 04:32:41;;;;;;;18.47;16.60;;;;;;;8.83;99.45;94125.00;5109315;28;20188;-68
2022/11/13 04:35:07;;;;;;;19.50;17.47;;;;;;;8.81;99.80;94111.44;5108420;28;20287;-68
2022/11/13 04:37:32;;;;;;;19.23;17.43;;;;;;;8.71;100.00;94103.41;5105854;28;20248;-67
2022/11/13 04:39:58;;;;;;;19.57;17.57;;;;;;;8.77;100.00;94108.50;5108254;28;20227;-68
2022/11/13 04:45:07;;;;;;;21.07;17.77;;;;;;;8.78;100.00;94109.31;5107066;28;20235;-67
2022/11/13 04:47:33;;;;;;;18.07;16.00;;;;;;;8.79;100.00;94113.47;5108514;28;20252;-67
2022/11/13 04:49:58;;;;;;;18.30;16.27;;;;;;;8.76;100.00;94113.94;5108054;28;20299;-70
2022/11/13 04:52:24;;;;;;;17.87;16.17;;;;;;;8.72;100.00;94111.00;5106709;28;20256;-69
2022/11/13 04:54:49;;;;;;;17.17;15.33;;;;;;;8.59;100.00;94087.81;5099357;28;20250;-69
2022/11/13 04:57:14;;;;;;;17.80;16.10;;;;;;;8.74;100.00;94103.75;5088505;28;20202;-71
2022/11/13 04:59:40;;;;;;;18.07;16.17;;;;;;;8.60;100.00;94096.41;5090921;28;20267;-71
2022/11/13 05:02:05;;;;;;;18.60;16.70;;;;;;;8.50;100.00;94091.03;5108121;28;20188;-71
2022/11/13 05:04:30;;;;;;;18.67;16.70;;;;;;;8.74;100.00;94114.16;5102205;28;20261;-71
2022/11/13 05:06:56;;;;;;;17.83;16.03;;;;;;;8.70;100.00;94114.88;5089693;28;20173;-71
2022/11/13 05:09:21;;;;;;;18.63;16.77;;;;;;;8.59;100.00;94098.22;5087759;28;20248;-71
2022/11/13 05:11:46;;;;;;;18.53;16.63;;;;;;;8.79;100.00;94121.28;5087581;28;20212;-71
2022/11/13 05:14:13;;;;;;;19.73;17.70;;;;;;;8.71;100.00;94121.63;5086264;28;20189;-71
2022/11/13 05:16:39;;;;;;;18.40;16.60;;;;;;;8.74;100.00;94126.38;5089445;28;20193;-71
2022/11/13 05:19:05;;;;;;;21.90;17.67;;;;;;;8.79;100.00;94126.50;5088549;28;20195;-71
2022/11/13 05:21:35;;;;;;;18.60;16.47;;;;;;;8.78;100.00;94117.88;5106117;28;20245;-71
2022/11/13 05:24:01;;;;;;;21.13;18.57;;;;;;;8.69;100.00;94113.25;5104962;28;20206;-71
2022/11/13 05:26:26;;;;;;;20.13;17.13;;;;;;;8.84;99.78;94116.19;5108627;28;20216;-70
2022/11/13 05:28:52;;;;;;;19.90;17.80;;;;;;;8.72;100.00;94118.00;5107167;28;20223;-71
2022/11/13 05:31:17;;;;;;;21.23;18.80;;;;;;;8.87;100.00;94113.13;5107413;28;20208;-71
2022/11/13 05:33:43;;;;;;;19.07;17.17;;;;;;;8.79;100.00;94122.09;5108950;28;20196;-70
2022/11/13 05:36:11;;;;;;;23.40;19.13;;;;;;;8.85;100.00;94117.75;5108322;28;20236;-71
2022/11/13 05:38:37;;;;;;;20.47;18.37;;;;;;;8.85;100.00;94128.19;5108643;28;20210;-71
2022/11/13 05:41:05;;;;;;;20.83;18.57;;;;;;;8.79;100.00;94129.91;5107515;28;20224;-70
2022/11/13 05:43:31;;;;;;;23.53;19.37;;;;;;;8.74;100.00;94126.38;5107267;28;20207;-71
2022/11/13 05:46:10;;;;;;;22.63;18.80;;;;;;;8.83;100.00;94131.00;5105560;28;20208;-71
2022/11/13 05:48:35;;;;;;;24.17;18.00;;;;;;;8.78;100.00;94130.13;5106143;28;20199;-71
2022/11/13 05:51:10;;;;;;;21.87;18.63;;;;;;;8.86;100.00;94135.75;5091930;28;20228;-71
2022/11/13 05:53:36;;;;;;;23.33;18.70;;;;;;;8.89;100.00;94129.28;5087671;28;20187;-71
2022/11/13 05:56:15;;;;;;;20.90;18.10;;;;;;;8.85;100.00;94142.00;5085908;28;20224;-71
2022/11/13 05:58:42;;;;;;;21.07;18.83;;;;;;;8.81;100.00;94133.03;5088890;28;20184;-71
2022/11/13 06:01:19;;;;;;;25.53;20.03;;;;;;;8.85;100.00;94134.19;5095194;28;20212;-71
2022/11/13 06:03:45;;;;;;;19.17;17.13;;;;;;;8.98;99.88;94141.72;5097261;28;20255;-69
2022/11/13 06:06:13;;;;;;;26.60;20.33;;;;;;;8.74;100.00;94115.97;5089694;28;20228;-70
2022/11/13 06:08:40;;;;;;;28.20;18.43;;;;;;;8.90;100.00;94142.06;5088847;28;20215;-69
2022/11/13 06:11:08;;;;;;;26.53;19.77;;;;;;;8.96;99.57;94150.81;5086571;28;20235;-69
2022/11/13 06:13:34;;;;;;;24.37;19.70;;;;;;;9.01;99.37;94153.50;5088280;28;20196;-69
2022/11/13 06:16:15;;;;;;;23.47;18.97;;;;;;;9.00;99.78;94157.13;5099558;28;20219;-69
2022/11/13 06:18:42;;;;;;;21.97;19.30;;;;;;;8.90;99.94;94146.50;5106267;28;20191;-69
2022/11/13 06:21:14;;;;;;;25.77;18.93;;;;;;;8.95;99.57;94151.84;5108239;28;20228;-70
2022/11/13 06:23:40;;;;;;;21.77;17.57;;;;;;;8.95;99.99;94150.00;5109591;28;20259;-69
2022/11/13 06:26:12;;;;;;;23.17;18.83;;;;;;;9.03;99.20;94149.63;5094458;28;20223;-71
2022/11/13 06:28:38;;;;;;;25.73;19.10;;;;;;;8.94;100.00;94150.22;5093387;28;20192;-73
2022/11/13 06:31:15;;;;;;;24.30;18.73;;;;;;;8.87;100.00;94147.75;5099096;28;20224;-71
2022/11/13 06:33:41;;;;;;;22.53;18.50;;;;;;;9.07;98.74;94153.38;5099701;28;20192;-72
2022/11/13 06:36:10;;;;;;;27.50;19.23;;;;;;;9.04;99.17;94147.84;5094073;28;20224;-71
2022/11/13 06:38:37;;;;;;;23.80;18.97;;;;;;;8.94;98.60;94145.03;5092321;28;20177;-71
2022/11/13 06:41:03;;;;;;;26.97;19.77;;;;;;;9.04;97.67;94159.03;5107114;28;20230;-72
2022/11/13 06:43:29;;;;;;;28.23;20.77;;;;;;;9.22;96.60;94153.66;5108438;28;20192;-71
2022/11/13 06:45:55;;;;;;;37.53;21.90;;;;;;;9.44;94.85;94154.59;5105988;28;20224;-71
2022/11/13 06:48:21;;;;;;;28.17;20.70;;;;;;;9.30;95.15;94158.50;5106243;28;20180;-69
2022/11/13 06:50:47;;;;;;;25.33;20.43;;;;;;;9.20;95.77;94152.28;5107202;28;20243;-70
2022/11/13 06:53:13;;;;;;;24.03;19.03;;;;;;;9.32;94.95;94156.44;5110162;28;20268;-69
2022/11/13 06:55:43;;;;;;;24.37;18.73;;;;;;;9.35;94.20;94157.81;5106915;28;20220;-71
2022/11/13 06:58:08;;;;;;;21.43;19.13;;;;;;;9.26;94.65;94156.59;5107986;28;20244;-70
2022/11/13 07:00:34;;;;;;;21.60;18.30;;;;;;;9.22;94.50;94134.63;5108676;28;20228;-73
2022/11/13 07:02:59;;;;;;;24.33;19.30;;;;;;;9.24;95.12;94143.00;5110537;28;20191;-68
2022/11/13 07:05:24;;;;;;;23.30;19.40;;;;;;;9.25;94.91;94141.97;5107801;28;20220;-78
2022/11/13 07:07:51;;;;;;;24.73;20.03;;;;;;;9.27;94.47;94138.13;5108403;28;20180;-72
2022/11/13 07:10:16;;;;;;;23.47;19.63;;;;;;;9.32;92.55;94134.81;5107912;28;20251;-73
2022/11/13 07:12:42;;;;;;;27.73;19.50;;;;;;;9.42;92.91;94148.81;5108634;28;20191;-75
2022/11/13 07:15:07;;;;;;;26.47;20.03;;;;;;;9.46;91.98;94167.41;5105889;28;20216;-69
2022/11/13 07:17:33;;;;;;;25.40;19.70;;;;;;;9.50;91.47;94160.69;5105501;28;20188;-75
2022/11/13 07:19:58;;;;;;;26.57;19.00;;;;;;;9.54;91.12;94164.44;5099703;28;20217;-71
2022/11/13 07:22:23;;;;;;;32.03;22.03;;;;;;;9.66;91.28;94163.31;5090334;28;20165;-71
2022/11/13 07:24:49;;;;;;;27.90;20.53;;;;;;;9.65;91.33;94163.56;5094354;28;20224;-69
2022/11/13 07:27:14;;;;;;;26.43;20.80;;;;;;;9.67;91.74;94170.13;5107021;28;20210;-70
2022/11/13 07:29:40;;;;;;;24.97;20.00;;;;;;;9.84;90.43;94166.78;5106174;28;20253;-70
2022/11/13 07:32:06;;;;;;;26.07;19.90;;;;;;;9.64;90.57;94141.13;5107216;28;20196;-71
2022/11/13 07:34:31;;;;;;;25.03;20.73;;;;;;;9.76;90.61;94154.88;5102522;28;21071;-72
2022/11/13 07:36:57;;;;;;;25.47;19.07;;;;;;;9.84;89.56;94158.94;5107766;28;20266;-69
2022/11/13 07:39:22;;;;;;;29.50;20.30;;;;;;;9.74;90.10;94162.94;5107494;28;20189;-67
2022/11/13 07:41:47;;;;;;;24.30;20.20;;;;;;;9.72;91.73;94161.59;5110175;28;20184;-69
2022/11/13 07:44:13;;;;;;;26.83;20.37;;;;;;;9.90;89.35;94174.41;5109556;28;20199;-68
2022/11/13 07:46:38;;;;;;;23.97;20.60;;;;;;;9.82;89.40;94153.97;5109194;28;20229;-68
2022/11/13 07:49:04;;;;;;;26.27;19.87;;;;;;;9.83;88.70;94155.53;5109167;28;20188;-69
2022/11/13 07:51:29;;;;;;;25.30;20.13;;;;;;;9.96;88.31;94165.66;5110774;28;20215;-68
2022/11/13 07:53:54;;;;;;;23.03;20.30;;;;;;;10.02;87.55;94159.50;5110528;28;20259;-68
2022/11/13 07:56:21;;;;;;;25.37;19.30;;;;;;;10.04;88.07;94169.72;5108837;28;20252;-69
2022/11/13 07:58:47;;;;;;;24.43;19.87;;;;;;;10.08;87.66;94171.63;5109145;28;20207;-67
2022/11/13 08:01:13;;;;;;;29.57;23.13;;;;;;;10.17;89.12;94172.03;5108481;28;20246;-68
2022/11/13 08:03:38;;;;;;;32.57;24.27;;;;;;;10.23;87.83;94171.88;5110286;28;20217;-69
2022/11/13 08:06:06;;;;;;;25.83;19.60;;;;;;;10.41;85.59;94171.59;5108089;28;20275;-67
2022/11/13 08:08:32;;;;;;;24.37;20.07;;;;;;;10.17;85.90;94166.78;5108821;28;20187;-68
2022/11/13 08:10:58;;;;;;;29.37;22.33;;;;;;;10.23;85.48;94178.91;5110182;28;20250;-68
2022/11/13 08:13:23;;;;;;;32.83;23.77;;;;;;;10.23;85.67;94165.84;5105229;28;20184;-68
2022/11/13 08:15:49;;;;;;;28.93;22.57;;;;;;;10.35;85.80;94158.75;5108477;28;20224;-67
2022/11/13 08:18:14;;;;;;;34.80;26.37;;;;;;;10.45;86.89;94172.72;5108744;28;20215;-67
2022/11/13 08:20:39;;;;;;;34.37;25.83;;;;;;;10.25;86.18;94109.78;5109385;28;20236;-69
2022/11/13 08:23:05;;;;;;;57.33;31.30;;;;;;;10.57;85.71;94156.94;5109779;28;20204;-69
2022/11/13 08:25:32;;;;;;;35.10;23.87;;;;;;;10.83;83.89;94170.09;5107613;28;20259;-70
2022/11/13 08:27:57;;;;;;;59.53;33.90;;;;;;;10.70;84.25;94164.44;5109251;28;20216;-69
2022/11/13 08:30:25;;;;;;;45.27;27.90;;;;;;;10.95;83.96;94175.25;5109059;28;20221;-70
2022/11/13 08:32:51;;;;;;;29.57;22.43;;;;;;;10.97;81.82;94171.34;5109568;28;20272;-68
2022/11/13 08:35:17;;;;;;;39.93;28.47;;;;;;;11.03;81.65;94174.81;5107197;28;20228;-69
2022/11/13 08:37:43;;;;;;;25.47;20.23;;;;;;;10.96;81.67;94164.53;5108443;28;20191;-68
2022/11/13 08:40:09;;;;;;;29.80;22.43;;;;;;;11.04;80.27;94171.97;5107072;28;20283;-68
2022/11/13 08:42:34;;;;;;;26.50;20.90;;;;;;;11.05;79.85;94175.38;5106080;28;20221;-67
2022/11/13 08:44:59;;;;;;;25.90;20.60;;;;;;;10.92;79.84;94166.06;5106605;28;21030;-68
2022/11/13 08:47:27;;;;;;;26.97;22.03;;;;;;;10.99;81.50;94176.31;5108919;28;20193;-67
2022/11/13 08:49:53;;;;;;;28.43;19.83;;;;;;;11.24;79.47;94172.22;5107470;28;20249;-69
2022/11/13 08:52:18;;;;;;;21.43;19.23;;;;;;;11.28;78.96;94180.38;5109609;28;20216;-67
2022/11/13 08:54:44;;;;;;;20.73;18.53;;;;;;;11.16;78.48;94170.03;5107388;28;21010;-67
2022/11/13 08:57:09;;;;;;;29.87;23.17;;;;;;;11.16;80.19;94183.09;5107237;28;20201;-68
2022/11/13 08:59:34;;;;;;;27.10;22.53;;;;;;;11.14;79.04;94187.00;5102157;28;20253;-69
2022/11/13 09:02:00;;;;;;;26.07;21.70;;;;;;;11.11;78.51;94174.41;5106167;28;20188;-68
2022/11/13 09:04:25;;;;;;;24.17;20.90;;;;;;;11.33;78.21;94196.13;5104499;28;20189;-69
2022/11/13 09:06:51;;;;;;;24.50;19.33;;;;;;;11.24;78.69;94192.31;5109714;28;20203;-66
2022/11/13 09:09:18;;;;;;;21.97;19.63;;;;;;;11.41;77.68;94193.03;5108178;28;20176;-71
2022/11/13 09:11:43;;;;;;;21.87;19.53;;;;;;;11.41;77.49;94173.97;5107587;28;20211;-70
2022/11/13 09:14:08;;;;;;;22.30;19.80;;;;;;;11.63;76.96;94190.44;5107556;28;20187;-70
2022/11/13 09:16:34;;;;;;;31.07;25.57;;;;;;;11.76;75.54;94180.38;5108774;28;20172;-69
2022/11/13 09:18:59;;;;;;;21.20;19.00;;;;;;;11.51;76.14;94184.53;5109094;28;20188;-69
2022/11/13 09:21:25;;;;;;;26.37;21.33;;;;;;;11.63;76.26;94186.00;5107134;28;20239;-70
2022/11/13 09:23:50;;;;;;;23.03;19.03;;;;;;;11.60;76.02;94185.66;5106321;28;20184;-69
2022/11/13 09:26:16;;;;;;;27.23;22.00;;;;;;;11.70;76.34;94188.44;5108734;28;20235;-69
2022/11/13 09:28:41;;;;;;;28.53;22.33;;;;;;;11.81;75.76;94182.25;5107272;28;20204;-70
2022/11/13 09:31:08;;;;;;;26.23;21.10;;;;;;;11.85;75.87;94178.09;5107768;28;20257;-69
2022/11/13 09:33:33;;;;;;;29.37;22.43;;;;;;;11.87;76.25;94168.19;5108352;28;20242;-69
2022/11/13 09:35:59;;;;;;;25.80;20.03;;;;;;;12.12;75.85;94178.88;5107849;28;20232;-69
2022/11/13 09:38:25;;;;;;;23.17;19.67;;;;;;;12.29;73.91;94174.31;5106625;28;20184;-69
2022/11/13 09:41:13;;;;;;;23.00;17.97;;;;;;;12.03;73.64;94169.91;5108906;28;20243;-69
2022/11/13 09:43:44;;;;;;;19.03;17.10;;;;;;;12.00;74.94;94165.19;5108728;28;20184;-71
2022/11/13 09:46:40;;;;;;;23.40;19.03;;;;;;;11.90;75.21;94165.06;5107876;28;20240;-69
2022/11/13 09:49:15;;;;;;;23.07;19.80;;;;;;;12.19;74.82;94169.78;5105083;28;20181;-72
2022/11/13 09:51:46;;;;;;;27.83;21.17;;;;;;;11.87;77.17;94158.50;5106867;28;20225;-71
2022/11/13 09:54:13;;;;;;;24.57;19.20;;;;;;;12.18;73.96;94141.22;5104011;28;20226;-72
2022/11/13 09:56:41;;;;;;;21.73;18.30;;;;;;;12.18;74.73;94149.88;5087750;28;20207;-72
2022/11/13 09:59:33;;;;;;;22.70;19.37;;;;;;;12.26;75.25;94159.09;5085888;28;20201;-72
2022/11/13 10:02:13;;;;;;;26.93;20.87;;;;;;;12.15;75.14;94146.97;5107698;28;20186;-71
2022/11/13 10:04:47;;;;;;;24.47;20.10;;;;;;;12.43;74.17;94149.28;5107302;28;20239;-71
2022/11/13 10:07:18;;;;;;;21.43;18.70;;;;;;;12.39;73.58;94142.97;5107612;28;20179;-71
2022/11/13 10:10:17;;;;;;;28.63;22.07;;;;;;;12.37;73.79;94150.28;5107335;28;20264;-70
2022/11/13 10:12:45;;;;;;;26.90;20.87;;;;;;;12.14;74.25;94150.63;5106998;28;20184;-71
2022/11/13 10:15:11;;;;;;;30.83;24.17;;;;;;;12.14;74.65;94153.25;5105998;28;20254;-71
2022/11/13 10:17:52;;;;;;;24.77;19.07;;;;;;;12.09;75.00;94154.00;5105928;28;20179;-71
2022/11/13 10:20:22;;;;;;;24.07;20.93;;;;;;;12.29;74.25;94155.97;5106114;28;20273;-71
2022/11/13 10:22:50;;;;;;;22.43;19.60;;;;;;;12.24;74.23;94148.06;5106370;28;20183;-71
2022/11/13 10:25:18;;;;;;;23.77;20.10;;;;;;;12.13;74.72;94143.81;5106206;28;20239;-72
2022/11/13 10:27:52;;;;;;;25.57;19.73;;;;;;;12.16;74.73;94141.47;5108141;28;20195;-71
2022/11/13 10:33:39;;;;;;;25.77;20.27;;;;;;;11.79;76.21;94132.00;5105471;28;20207;-72
2022/11/13 10:36:18;;;;;;;23.97;19.80;;;;;;;11.84;75.67;94135.47;5107182;28;20221;-72
2022/11/13 10:38:49;;;;;;;22.33;19.20;;;;;;;11.99;74.84;94138.19;5105523;28;20255;-71
2022/11/13 10:41:20;;;;;;;26.63;18.77;;;;;;;11.83;75.97;94133.09;5104671;28;20279;-71
2022/11/13 10:43:56;;;;;;;31.13;23.67;;;;;;;11.58;76.06;94120.50;5107306;28;20181;-71
2022/11/13 10:46:25;;;;;;;32.73;23.60;;;;;;;11.37;77.31;94118.75;5106870;28;20367;-70
2022/11/13 10:48:51;;;;;;;26.60;22.73;;;;;;;11.23;78.57;94123.59;5108458;28;20219;-71
2022/11/13 10:51:30;;;;;;;26.60;21.37;;;;;;;11.42;78.08;94125.84;5105302;28;20231;-72
2022/11/13 10:53:58;;;;;;;23.80;18.47;;;;;;;11.46;77.82;94117.28;5107072;28;20185;-71
2022/11/13 10:56:31;;;;;;;24.63;20.87;;;;;;;11.58;77.69;94120.50;5106320;28;20224;-71
2022/11/13 10:59:09;;;;;;;27.50;21.50;;;;;;;11.72;76.50;94115.72;5105205;28;20184;-71
2022/11/13 11:01:34;;;;;;;22.73;20.23;;;;;;;11.59;76.69;94110.84;5105839;28;20243;-71
2022/11/13 11:04:03;;;;;;;22.63;19.30;;;;;;;11.49;76.23;94118.63;5105918;28;20198;-71
2022/11/13 11:06:34;;;;;;;24.33;21.23;;;;;;;11.46;76.90;94117.28;5106065;28;20231;-72
2022/11/13 11:09:07;;;;;;;23.00;20.60;;;;;;;11.30;76.74;94107.69;5108496;28;20181;-70
2022/11/13 11:14:25;;;;;;;31.60;23.40;;;;;;;10.97;79.14;94108.63;5105844;28;20248;-71
2022/11/13 11:16:52;;;;;;;23.83;20.23;;;;;;;11.07;78.52;94100.91;5111146;28;20267;-71
2022/11/13 11:19:23;;;;;;;24.53;19.03;;;;;;;11.18;78.49;94110.44;5124491;28;20241;-71
2022/11/13 11:21:52;;;;;;;22.43;20.03;;;;;;;11.18;77.25;94107.84;5108487;28;20195;-71
2022/11/13 11:24:31;;;;;;;23.83;21.23;;;;;;;11.12;77.72;94106.19;5109714;28;20172;-71
2022/11/13 11:27:14;;;;;;;27.30;19.80;;;;;;;11.08;77.32;94099.88;5108209;28;20212;-71
2022/11/13 11:29:59;;;;;;;21.43;18.60;;;;;;;10.93;77.88;94104.13;5109356;28;20235;-71
2022/11/13 11:32:28;;;;;;;24.23;20.57;;;;;;;10.83;78.35;94091.72;5109936;28;20215;-71